sensor_id;sensor_type;location;lat;lon;timestamp;P1;durP1;ratioP1;P2;durP2;ratioP2
37445;SDS011;23307;51.136;14.942;2023-08-21T00:02:21;10.55;;;9.55;;
37445;SDS011;23307;51.136;14.942;2023-08-21T00:04:47;10.68;;;9.57;;
37445;SDS011;23307;51.136;14.942;2023-08-21T00:07:12;10.00;;;9.05;;
37445;SDS011;23307;51.136;14.942;2023-08-21T00:09:38;10.27;;;9.27;;
37445;SDS011;23307;51.136;14.942;2023-08-21T00:12:03;9.82;;;8.88;;
37445;SDS011;23307;51.136;14.942;2023-08-21T00:14:29;11.05;;;9.90;;
37445;SDS011;23307;51.136;14.942;2023-08-21T00:16:55;12.75;;;9.93;;
37445;SDS011;23307;51.136;14.942;2023-08-21T00:19:20;10.65;;;9.65;;
37445;SDS011;23307;51.136;14.942;2023-08-21T00:21:46;10.20;;;9.23;;
37445;SDS011;23307;51.136;14.942;2023-08-21T00:24:12;10.20;;;9.20;;
37445;SDS011;23307;51.136;14.942;2023-08-21T00:26:38;10.05;;;9.15;;
37445;SDS011;23307;51.136;14.942;2023-08-21T00:29:03;10.38;;;9.38;;
37445;SDS011;23307;51.136;14.942;2023-08-21T00:31:29;10.27;;;9.18;;
37445;SDS011;23307;51.136;14.942;2023-08-21T00:33:55;12.77;;;9.85;;
37445;SDS011;23307;51.136;14.942;2023-08-21T00:36:20;10.68;;;9.70;;
37445;SDS011;23307;51.136;14.942;2023-08-21T00:38:46;10.18;;;9.18;;
37445;SDS011;23307;51.136;14.942;2023-08-21T00:41:12;10.98;;;9.88;;
37445;SDS011;23307;51.136;14.942;2023-08-21T00:43:38;10.57;;;9.50;;
37445;SDS011;23307;51.136;14.942;2023-08-21T00:46:03;10.10;;;9.18;;
37445;SDS011;23307;51.136;14.942;2023-08-21T00:48:29;10.15;;;8.43;;
37445;SDS011;23307;51.136;14.942;2023-08-21T00:50:55;9.93;;;8.88;;
37445;SDS011;23307;51.136;14.942;2023-08-21T00:53:21;9.43;;;8.32;;
37445;SDS011;23307;51.136;14.942;2023-08-21T00:55:46;9.57;;;8.60;;
37445;SDS011;23307;51.136;14.942;2023-08-21T00:58:12;10.45;;;9.00;;
37445;SDS011;23307;51.136;14.942;2023-08-21T01:00:39;9.70;;;8.88;;
37445;SDS011;23307;51.136;14.942;2023-08-21T01:03:06;9.18;;;8.38;;
37445;SDS011;23307;51.136;14.942;2023-08-21T01:05:32;9.48;;;8.50;;
37445;SDS011;23307;51.136;14.942;2023-08-21T01:08:05;10.27;;;9.25;;
37445;SDS011;23307;51.136;14.942;2023-08-21T01:11:02;10.20;;;9.20;;
37445;SDS011;23307;51.136;14.942;2023-08-21T01:13:54;10.60;;;9.52;;
37445;SDS011;23307;51.136;14.942;2023-08-21T01:16:33;10.80;;;9.32;;
37445;SDS011;23307;51.136;14.942;2023-08-21T01:18:59;11.05;;;8.57;;
37445;SDS011;23307;51.136;14.942;2023-08-21T01:21:26;10.35;;;9.35;;
37445;SDS011;23307;51.136;14.942;2023-08-21T01:23:52;10.77;;;9.75;;
37445;SDS011;23307;51.136;14.942;2023-08-21T01:26:17;10.68;;;9.60;;
37445;SDS011;23307;51.136;14.942;2023-08-21T01:28:43;10.85;;;9.85;;
37445;SDS011;23307;51.136;14.942;2023-08-21T01:31:11;10.70;;;9.63;;
37445;SDS011;23307;51.136;14.942;2023-08-21T01:33:47;10.95;;;9.77;;
37445;SDS011;23307;51.136;14.942;2023-08-21T01:36:21;11.02;;;9.95;;
37445;SDS011;23307;51.136;14.942;2023-08-21T01:38:47;11.00;;;10.00;;
37445;SDS011;23307;51.136;14.942;2023-08-21T01:41:13;11.82;;;9.75;;
37445;SDS011;23307;51.136;14.942;2023-08-21T01:43:39;10.05;;;9.10;;
37445;SDS011;23307;51.136;14.942;2023-08-21T01:46:05;11.82;;;10.68;;
37445;SDS011;23307;51.136;14.942;2023-08-21T01:48:31;11.95;;;10.55;;
37445;SDS011;23307;51.136;14.942;2023-08-21T01:50:56;11.55;;;10.35;;
37445;SDS011;23307;51.136;14.942;2023-08-21T01:53:22;11.40;;;10.30;;
37445;SDS011;23307;51.136;14.942;2023-08-21T01:55:48;12.13;;;10.93;;
37445;SDS011;23307;51.136;14.942;2023-08-21T01:58:13;11.75;;;10.57;;
37445;SDS011;23307;51.136;14.942;2023-08-21T02:00:39;10.93;;;9.93;;
37445;SDS011;23307;51.136;14.942;2023-08-21T02:03:05;11.18;;;10.05;;
37445;SDS011;23307;51.136;14.942;2023-08-21T02:05:30;10.77;;;9.73;;
37445;SDS011;23307;51.136;14.942;2023-08-21T02:08:02;10.68;;;9.63;;
37445;SDS011;23307;51.136;14.942;2023-08-21T02:10:28;10.93;;;9.68;;
37445;SDS011;23307;51.136;14.942;2023-08-21T02:12:54;11.65;;;10.63;;
37445;SDS011;23307;51.136;14.942;2023-08-21T02:15:19;10.50;;;9.60;;
37445;SDS011;23307;51.136;14.942;2023-08-21T02:17:47;12.00;;;10.80;;
37445;SDS011;23307;51.136;14.942;2023-08-21T02:20:12;11.95;;;10.85;;
37445;SDS011;23307;51.136;14.942;2023-08-21T02:22:38;12.98;;;11.65;;
37445;SDS011;23307;51.136;14.942;2023-08-21T02:25:03;12.93;;;11.60;;
37445;SDS011;23307;51.136;14.942;2023-08-21T02:27:29;11.57;;;10.48;;
37445;SDS011;23307;51.136;14.942;2023-08-21T02:29:55;12.18;;;10.98;;
37445;SDS011;23307;51.136;14.942;2023-08-21T02:32:21;13.05;;;11.77;;
37445;SDS011;23307;51.136;14.942;2023-08-21T02:34:46;13.27;;;11.93;;
37445;SDS011;23307;51.136;14.942;2023-08-21T02:37:12;14.10;;;11.25;;
37445;SDS011;23307;51.136;14.942;2023-08-21T02:39:38;11.70;;;10.50;;
37445;SDS011;23307;51.136;14.942;2023-08-21T02:42:03;12.40;;;11.30;;
37445;SDS011;23307;51.136;14.942;2023-08-21T02:44:29;11.20;;;10.00;;
37445;SDS011;23307;51.136;14.942;2023-08-21T02:46:54;12.45;;;11.23;;
37445;SDS011;23307;51.136;14.942;2023-08-21T02:49:20;11.80;;;10.60;;
37445;SDS011;23307;51.136;14.942;2023-08-21T02:51:45;12.80;;;11.43;;
37445;SDS011;23307;51.136;14.942;2023-08-21T02:54:11;12.60;;;11.32;;
37445;SDS011;23307;51.136;14.942;2023-08-21T02:56:36;13.32;;;11.57;;
37445;SDS011;23307;51.136;14.942;2023-08-21T02:59:02;12.65;;;11.15;;
37445;SDS011;23307;51.136;14.942;2023-08-21T03:01:27;13.07;;;11.80;;
37445;SDS011;23307;51.136;14.942;2023-08-21T03:03:53;12.60;;;11.48;;
37445;SDS011;23307;51.136;14.942;2023-08-21T03:06:18;11.38;;;10.25;;
37445;SDS011;23307;51.136;14.942;2023-08-21T03:08:44;11.73;;;10.63;;
37445;SDS011;23307;51.136;14.942;2023-08-21T03:11:10;11.13;;;10.00;;
37445;SDS011;23307;51.136;14.942;2023-08-21T03:13:35;12.18;;;11.07;;
37445;SDS011;23307;51.136;14.942;2023-08-21T03:16:01;13.32;;;12.02;;
37445;SDS011;23307;51.136;14.942;2023-08-21T03:18:30;12.70;;;11.50;;
37445;SDS011;23307;51.136;14.942;2023-08-21T03:20:56;13.38;;;12.07;;
37445;SDS011;23307;51.136;14.942;2023-08-21T03:23:22;13.23;;;11.85;;
37445;SDS011;23307;51.136;14.942;2023-08-21T03:25:47;13.77;;;11.30;;
37445;SDS011;23307;51.136;14.942;2023-08-21T03:28:16;12.10;;;10.88;;
37445;SDS011;23307;51.136;14.942;2023-08-21T03:30:42;12.80;;;11.60;;
37445;SDS011;23307;51.136;14.942;2023-08-21T03:33:07;12.63;;;11.45;;
37445;SDS011;23307;51.136;14.942;2023-08-21T03:35:33;13.93;;;12.55;;
37445;SDS011;23307;51.136;14.942;2023-08-21T03:37:59;14.63;;;13.15;;
37445;SDS011;23307;51.136;14.942;2023-08-21T03:40:24;15.98;;;13.85;;
37445;SDS011;23307;51.136;14.942;2023-08-21T03:42:50;15.90;;;14.25;;
37445;SDS011;23307;51.136;14.942;2023-08-21T03:45:15;14.38;;;12.98;;
37445;SDS011;23307;51.136;14.942;2023-08-21T03:47:41;16.90;;;15.40;;
37445;SDS011;23307;51.136;14.942;2023-08-21T03:50:06;17.20;;;15.23;;
37445;SDS011;23307;51.136;14.942;2023-08-21T03:52:32;18.02;;;16.27;;
37445;SDS011;23307;51.136;14.942;2023-08-21T03:54:58;16.67;;;14.90;;
37445;SDS011;23307;51.136;14.942;2023-08-21T03:57:23;17.85;;;15.38;;
37445;SDS011;23307;51.136;14.942;2023-08-21T03:59:49;16.23;;;14.52;;
37445;SDS011;23307;51.136;14.942;2023-08-21T04:02:14;17.42;;;15.73;;
37445;SDS011;23307;51.136;14.942;2023-08-21T04:04:40;17.48;;;15.80;;
37445;SDS011;23307;51.136;14.942;2023-08-21T04:07:05;17.67;;;16.08;;
37445;SDS011;23307;51.136;14.942;2023-08-21T04:09:31;18.20;;;16.60;;
37445;SDS011;23307;51.136;14.942;2023-08-21T04:11:57;19.23;;;17.42;;
37445;SDS011;23307;51.136;14.942;2023-08-21T04:14:22;18.55;;;16.65;;
37445;SDS011;23307;51.136;14.942;2023-08-21T04:16:48;18.73;;;16.73;;
37445;SDS011;23307;51.136;14.942;2023-08-21T04:19:13;19.35;;;17.42;;
37445;SDS011;23307;51.136;14.942;2023-08-21T04:21:39;19.05;;;17.05;;
37445;SDS011;23307;51.136;14.942;2023-08-21T04:24:04;20.17;;;18.10;;
37445;SDS011;23307;51.136;14.942;2023-08-21T04:26:30;20.52;;;18.42;;
37445;SDS011;23307;51.136;14.942;2023-08-21T04:28:56;19.65;;;17.83;;
37445;SDS011;23307;51.136;14.942;2023-08-21T04:31:22;19.98;;;18.08;;
37445;SDS011;23307;51.136;14.942;2023-08-21T04:33:47;21.05;;;18.33;;
37445;SDS011;23307;51.136;14.942;2023-08-21T04:36:16;22.05;;;17.88;;
37445;SDS011;23307;51.136;14.942;2023-08-21T04:38:42;20.60;;;18.60;;
37445;SDS011;23307;51.136;14.942;2023-08-21T04:41:09;22.00;;;19.70;;
37445;SDS011;23307;51.136;14.942;2023-08-21T04:43:35;21.85;;;19.55;;
37445;SDS011;23307;51.136;14.942;2023-08-21T04:46:00;21.60;;;19.48;;
37445;SDS011;23307;51.136;14.942;2023-08-21T04:48:26;21.05;;;18.85;;
37445;SDS011;23307;51.136;14.942;2023-08-21T04:50:52;21.77;;;19.42;;
37445;SDS011;23307;51.136;14.942;2023-08-21T04:53:17;20.77;;;18.58;;
37445;SDS011;23307;51.136;14.942;2023-08-21T04:55:43;19.98;;;17.92;;
37445;SDS011;23307;51.136;14.942;2023-08-21T04:58:08;19.42;;;17.50;;
37445;SDS011;23307;51.136;14.942;2023-08-21T05:00:35;20.23;;;18.05;;
37445;SDS011;23307;51.136;14.942;2023-08-21T05:03:01;20.65;;;18.65;;
37445;SDS011;23307;51.136;14.942;2023-08-21T05:05:26;20.10;;;18.13;;
37445;SDS011;23307;51.136;14.942;2023-08-21T05:07:52;18.95;;;17.05;;
37445;SDS011;23307;51.136;14.942;2023-08-21T05:10:18;19.15;;;17.15;;
37445;SDS011;23307;51.136;14.942;2023-08-21T05:12:44;19.85;;;17.85;;
37445;SDS011;23307;51.136;14.942;2023-08-21T05:15:10;20.42;;;18.30;;
37445;SDS011;23307;51.136;14.942;2023-08-21T05:17:36;20.15;;;17.45;;
37445;SDS011;23307;51.136;14.942;2023-08-21T05:20:02;19.73;;;17.75;;
37445;SDS011;23307;51.136;14.942;2023-08-21T05:22:28;19.45;;;17.45;;
37445;SDS011;23307;51.136;14.942;2023-08-21T05:24:53;19.33;;;17.17;;
37445;SDS011;23307;51.136;14.942;2023-08-21T05:27:19;20.10;;;17.73;;
37445;SDS011;23307;51.136;14.942;2023-08-21T05:29:45;18.00;;;16.20;;
37445;SDS011;23307;51.136;14.942;2023-08-21T05:32:10;18.95;;;16.95;;
37445;SDS011;23307;51.136;14.942;2023-08-21T05:34:36;20.05;;;17.80;;
37445;SDS011;23307;51.136;14.942;2023-08-21T05:37:02;19.48;;;17.52;;
37445;SDS011;23307;51.136;14.942;2023-08-21T05:39:27;19.38;;;17.38;;
37445;SDS011;23307;51.136;14.942;2023-08-21T05:41:53;18.23;;;16.52;;
37445;SDS011;23307;51.136;14.942;2023-08-21T05:44:19;19.60;;;17.73;;
37445;SDS011;23307;51.136;14.942;2023-08-21T05:46:45;19.05;;;17.13;;
37445;SDS011;23307;51.136;14.942;2023-08-21T05:49:10;20.30;;;16.90;;
37445;SDS011;23307;51.136;14.942;2023-08-21T05:51:36;19.73;;;17.73;;
37445;SDS011;23307;51.136;14.942;2023-08-21T05:54:01;18.88;;;16.88;;
37445;SDS011;23307;51.136;14.942;2023-08-21T05:56:27;18.88;;;16.80;;
37445;SDS011;23307;51.136;14.942;2023-08-21T05:58:52;18.60;;;16.75;;
37445;SDS011;23307;51.136;14.942;2023-08-21T06:01:18;18.80;;;16.88;;
37445;SDS011;23307;51.136;14.942;2023-08-21T06:03:43;18.05;;;15.95;;
37445;SDS011;23307;51.136;14.942;2023-08-21T06:06:09;19.75;;;17.85;;
37445;SDS011;23307;51.136;14.942;2023-08-21T06:08:34;22.00;;;17.52;;
37445;SDS011;23307;51.136;14.942;2023-08-21T06:11:00;19.85;;;17.80;;
37445;SDS011;23307;51.136;14.942;2023-08-21T06:13:26;20.67;;;18.55;;
37445;SDS011;23307;51.136;14.942;2023-08-21T06:15:52;19.40;;;17.42;;
37445;SDS011;23307;51.136;14.942;2023-08-21T06:18:18;19.73;;;17.75;;
37445;SDS011;23307;51.136;14.942;2023-08-21T06:20:44;18.20;;;16.50;;
37445;SDS011;23307;51.136;14.942;2023-08-21T06:23:10;19.42;;;17.02;;
37445;SDS011;23307;51.136;14.942;2023-08-21T06:25:36;18.83;;;16.85;;
37445;SDS011;23307;51.136;14.942;2023-08-21T06:28:01;18.17;;;16.27;;
37445;SDS011;23307;51.136;14.942;2023-08-21T06:30:27;18.58;;;16.67;;
37445;SDS011;23307;51.136;14.942;2023-08-21T06:32:53;19.35;;;17.38;;
37445;SDS011;23307;51.136;14.942;2023-08-21T06:35:20;19.65;;;17.55;;
37445;SDS011;23307;51.136;14.942;2023-08-21T06:37:45;20.42;;;16.90;;
37445;SDS011;23307;51.136;14.942;2023-08-21T06:40:11;19.77;;;17.77;;
37445;SDS011;23307;51.136;14.942;2023-08-21T06:42:36;21.38;;;17.65;;
37445;SDS011;23307;51.136;14.942;2023-08-21T06:45:03;19.38;;;17.38;;
37445;SDS011;23307;51.136;14.942;2023-08-21T06:47:30;20.55;;;17.85;;
37445;SDS011;23307;51.136;14.942;2023-08-21T06:49:55;20.50;;;18.30;;
37445;SDS011;23307;51.136;14.942;2023-08-21T06:52:21;20.05;;;17.65;;
37445;SDS011;23307;51.136;14.942;2023-08-21T06:54:47;22.80;;;19.13;;
37445;SDS011;23307;51.136;14.942;2023-08-21T06:57:13;20.85;;;18.15;;
37445;SDS011;23307;51.136;14.942;2023-08-21T06:59:38;20.33;;;18.17;;
37445;SDS011;23307;51.136;14.942;2023-08-21T07:02:05;21.40;;;19.08;;
37445;SDS011;23307;51.136;14.942;2023-08-21T07:04:30;27.67;;;20.02;;
37445;SDS011;23307;51.136;14.942;2023-08-21T07:06:59;21.38;;;19.02;;
37445;SDS011;23307;51.136;14.942;2023-08-21T07:09:24;20.50;;;18.30;;
37445;SDS011;23307;51.136;14.942;2023-08-21T07:11:50;19.52;;;17.45;;
37445;SDS011;23307;51.136;14.942;2023-08-21T07:14:15;21.92;;;18.85;;
37445;SDS011;23307;51.136;14.942;2023-08-21T07:16:42;23.63;;;18.95;;
37445;SDS011;23307;51.136;14.942;2023-08-21T07:19:08;19.67;;;17.58;;
37445;SDS011;23307;51.136;14.942;2023-08-21T07:21:33;21.90;;;18.23;;
37445;SDS011;23307;51.136;14.942;2023-08-21T07:24:02;19.85;;;17.60;;
37445;SDS011;23307;51.136;14.942;2023-08-21T07:26:28;21.42;;;17.13;;
37445;SDS011;23307;51.136;14.942;2023-08-21T07:28:54;19.52;;;17.42;;
37445;SDS011;23307;51.136;14.942;2023-08-21T07:31:20;23.15;;;17.83;;
37445;SDS011;23307;51.136;14.942;2023-08-21T07:33:45;18.58;;;16.63;;
37445;SDS011;23307;51.136;14.942;2023-08-21T07:36:11;18.98;;;17.00;;
37445;SDS011;23307;51.136;14.942;2023-08-21T07:38:42;19.85;;;17.30;;
37445;SDS011;23307;51.136;14.942;2023-08-21T07:41:08;18.88;;;17.00;;
37445;SDS011;23307;51.136;14.942;2023-08-21T07:43:36;19.33;;;17.33;;
37445;SDS011;23307;51.136;14.942;2023-08-21T07:46:03;19.00;;;16.77;;
37445;SDS011;23307;51.136;14.942;2023-08-21T07:48:32;22.27;;;15.48;;
37445;SDS011;23307;51.136;14.942;2023-08-21T07:50:58;17.27;;;15.45;;
37445;SDS011;23307;51.136;14.942;2023-08-21T07:53:24;17.75;;;16.00;;
37445;SDS011;23307;51.136;14.942;2023-08-21T07:55:50;17.85;;;16.00;;
37445;SDS011;23307;51.136;14.942;2023-08-21T07:58:16;16.63;;;14.88;;
37445;SDS011;23307;51.136;14.942;2023-08-21T08:00:42;17.60;;;15.77;;
37445;SDS011;23307;51.136;14.942;2023-08-21T08:03:08;17.33;;;15.52;;
37445;SDS011;23307;51.136;14.942;2023-08-21T08:05:34;17.92;;;15.60;;
37445;SDS011;23307;51.136;14.942;2023-08-21T08:08:00;16.58;;;14.93;;
37445;SDS011;23307;51.136;14.942;2023-08-21T08:10:25;17.02;;;14.70;;
37445;SDS011;23307;51.136;14.942;2023-08-21T08:12:51;16.52;;;14.85;;
37445;SDS011;23307;51.136;14.942;2023-08-21T08:15:17;16.05;;;14.23;;
37445;SDS011;23307;51.136;14.942;2023-08-21T08:17:43;17.33;;;15.52;;
37445;SDS011;23307;51.136;14.942;2023-08-21T08:20:10;17.83;;;14.77;;
37445;SDS011;23307;51.136;14.942;2023-08-21T08:22:37;15.23;;;13.70;;
37445;SDS011;23307;51.136;14.942;2023-08-21T08:25:02;16.85;;;15.27;;
37445;SDS011;23307;51.136;14.942;2023-08-21T08:27:30;16.38;;;14.63;;
37445;SDS011;23307;51.136;14.942;2023-08-21T08:29:56;16.48;;;14.85;;
37445;SDS011;23307;51.136;14.942;2023-08-21T08:32:21;15.15;;;13.70;;
37445;SDS011;23307;51.136;14.942;2023-08-21T08:34:47;14.43;;;12.95;;
37445;SDS011;23307;51.136;14.942;2023-08-21T08:37:13;14.35;;;12.95;;
37445;SDS011;23307;51.136;14.942;2023-08-21T08:39:38;14.50;;;13.18;;
37445;SDS011;23307;51.136;14.942;2023-08-21T08:42:05;14.02;;;12.63;;
37445;SDS011;23307;51.136;14.942;2023-08-21T08:44:31;13.38;;;12.18;;
37445;SDS011;23307;51.136;14.942;2023-08-21T08:47:00;13.23;;;11.93;;
37445;SDS011;23307;51.136;14.942;2023-08-21T08:49:26;13.48;;;11.98;;
37445;SDS011;23307;51.136;14.942;2023-08-21T08:51:52;13.38;;;12.13;;
37445;SDS011;23307;51.136;14.942;2023-08-21T08:54:19;13.48;;;12.27;;
37445;SDS011;23307;51.136;14.942;2023-08-21T08:56:47;13.63;;;12.32;;
37445;SDS011;23307;51.136;14.942;2023-08-21T08:59:13;12.77;;;11.63;;
37445;SDS011;23307;51.136;14.942;2023-08-21T09:01:40;12.73;;;11.63;;
37445;SDS011;23307;51.136;14.942;2023-08-21T09:04:07;12.18;;;11.02;;
37445;SDS011;23307;51.136;14.942;2023-08-21T09:06:33;12.40;;;11.10;;
37445;SDS011;23307;51.136;14.942;2023-08-21T09:08:59;13.75;;;12.25;;
37445;SDS011;23307;51.136;14.942;2023-08-21T09:11:25;13.93;;;12.63;;
37445;SDS011;23307;51.136;14.942;2023-08-21T09:13:51;14.23;;;12.82;;
37445;SDS011;23307;51.136;14.942;2023-08-21T09:16:18;14.40;;;13.13;;
37445;SDS011;23307;51.136;14.942;2023-08-21T09:18:48;13.55;;;12.35;;
37445;SDS011;23307;51.136;14.942;2023-08-21T09:21:15;13.40;;;12.20;;
37445;SDS011;23307;51.136;14.942;2023-08-21T09:23:42;12.68;;;11.52;;
37445;SDS011;23307;51.136;14.942;2023-08-21T09:26:09;11.68;;;10.60;;
37445;SDS011;23307;51.136;14.942;2023-08-21T09:28:35;13.00;;;11.70;;
37445;SDS011;23307;51.136;14.942;2023-08-21T09:31:02;11.15;;;10.05;;
37445;SDS011;23307;51.136;14.942;2023-08-21T09:33:28;12.15;;;11.02;;
37445;SDS011;23307;51.136;14.942;2023-08-21T09:35:54;11.43;;;10.32;;
37445;SDS011;23307;51.136;14.942;2023-08-21T09:38:20;12.05;;;10.88;;
37445;SDS011;23307;51.136;14.942;2023-08-21T09:40:50;11.60;;;10.60;;
37445;SDS011;23307;51.136;14.942;2023-08-21T09:43:17;13.98;;;11.13;;
37445;SDS011;23307;51.136;14.942;2023-08-21T09:45:45;12.32;;;11.20;;
37445;SDS011;23307;51.136;14.942;2023-08-21T09:48:13;10.85;;;9.68;;
37445;SDS011;23307;51.136;14.942;2023-08-21T09:50:39;11.35;;;10.25;;
37445;SDS011;23307;51.136;14.942;2023-08-21T09:53:08;10.95;;;9.95;;
37445;SDS011;23307;51.136;14.942;2023-08-21T09:55:34;11.10;;;10.10;;
37445;SDS011;23307;51.136;14.942;2023-08-21T09:58:00;10.80;;;9.90;;
37445;SDS011;23307;51.136;14.942;2023-08-21T10:00:34;10.65;;;9.77;;
37445;SDS011;23307;51.136;14.942;2023-08-21T10:03:06;9.55;;;8.75;;
37445;SDS011;23307;51.136;14.942;2023-08-21T10:05:33;9.38;;;8.50;;
37445;SDS011;23307;51.136;14.942;2023-08-21T10:08:03;9.85;;;8.98;;
37445;SDS011;23307;51.136;14.942;2023-08-21T10:10:34;9.68;;;8.85;;
37445;SDS011;23307;51.136;14.942;2023-08-21T10:13:01;10.80;;;9.90;;
37445;SDS011;23307;51.136;14.942;2023-08-21T10:15:28;10.98;;;9.10;;
37445;SDS011;23307;51.136;14.942;2023-08-21T10:17:55;9.15;;;8.35;;
37445;SDS011;23307;51.136;14.942;2023-08-21T10:20:22;9.20;;;8.43;;
37445;SDS011;23307;51.136;14.942;2023-08-21T10:22:50;9.30;;;8.50;;
37445;SDS011;23307;51.136;14.942;2023-08-21T10:27:48;9.18;;;8.38;;
37445;SDS011;23307;51.136;14.942;2023-08-21T10:30:19;10.70;;;8.50;;
37445;SDS011;23307;51.136;14.942;2023-08-21T10:32:48;9.82;;;8.20;;
37445;SDS011;23307;51.136;14.942;2023-08-21T10:35:15;10.52;;;8.48;;
37445;SDS011;23307;51.136;14.942;2023-08-21T10:40:38;8.63;;;7.82;;
37445;SDS011;23307;51.136;14.942;2023-08-21T10:43:36;8.50;;;7.72;;
37445;SDS011;23307;51.136;14.942;2023-08-21T10:46:10;7.85;;;7.15;;
37445;SDS011;23307;51.136;14.942;2023-08-21T10:48:36;9.43;;;7.70;;
37445;SDS011;23307;51.136;14.942;2023-08-21T10:51:03;8.50;;;7.80;;
37445;SDS011;23307;51.136;14.942;2023-08-21T10:53:31;8.35;;;7.65;;
37445;SDS011;23307;51.136;14.942;2023-08-21T10:56:00;8.60;;;7.80;;
37445;SDS011;23307;51.136;14.942;2023-08-21T10:58:27;8.93;;;7.32;;
37445;SDS011;23307;51.136;14.942;2023-08-21T11:00:57;7.25;;;6.63;;
37445;SDS011;23307;51.136;14.942;2023-08-21T11:03:26;7.90;;;7.10;;
37445;SDS011;23307;51.136;14.942;2023-08-21T11:06:04;8.07;;;7.25;;
37445;SDS011;23307;51.136;14.942;2023-08-21T11:08:34;7.38;;;6.65;;
37445;SDS011;23307;51.136;14.942;2023-08-21T11:11:01;8.35;;;7.55;;
37445;SDS011;23307;51.136;14.942;2023-08-21T11:13:28;7.13;;;6.45;;
37445;SDS011;23307;51.136;14.942;2023-08-21T11:15:57;7.30;;;6.60;;
37445;SDS011;23307;51.136;14.942;2023-08-21T11:18:29;7.25;;;6.55;;
37445;SDS011;23307;51.136;14.942;2023-08-21T11:21:02;7.13;;;6.43;;
37445;SDS011;23307;51.136;14.942;2023-08-21T11:23:39;6.13;;;5.53;;
37445;SDS011;23307;51.136;14.942;2023-08-21T11:26:06;4.53;;;4.13;;
37445;SDS011;23307;51.136;14.942;2023-08-21T11:28:35;5.75;;;5.18;;
37445;SDS011;23307;51.136;14.942;2023-08-21T11:31:01;5.65;;;5.15;;
37445;SDS011;23307;51.136;14.942;2023-08-21T11:33:27;5.45;;;4.95;;
37445;SDS011;23307;51.136;14.942;2023-08-21T11:35:53;5.72;;;5.28;;
37445;SDS011;23307;51.136;14.942;2023-08-21T11:38:22;6.38;;;5.20;;
37445;SDS011;23307;51.136;14.942;2023-08-21T11:41:00;4.38;;;3.97;;
37445;SDS011;23307;51.136;14.942;2023-08-21T11:43:40;4.65;;;3.97;;
37445;SDS011;23307;51.136;14.942;2023-08-21T11:46:08;5.30;;;4.28;;
37445;SDS011;23307;51.136;14.942;2023-08-21T11:48:36;5.13;;;4.63;;
37445;SDS011;23307;51.136;14.942;2023-08-21T11:51:03;4.93;;;4.35;;
37445;SDS011;23307;51.136;14.942;2023-08-21T11:53:31;5.05;;;4.45;;
37445;SDS011;23307;51.136;14.942;2023-08-21T11:56:00;4.10;;;3.80;;
37445;SDS011;23307;51.136;14.942;2023-08-21T11:58:28;4.35;;;3.92;;
37445;SDS011;23307;51.136;14.942;2023-08-21T12:00:54;4.15;;;3.75;;
37445;SDS011;23307;51.136;14.942;2023-08-21T12:03:28;4.28;;;3.88;;
37445;SDS011;23307;51.136;14.942;2023-08-21T12:05:54;5.30;;;4.80;;
37445;SDS011;23307;51.136;14.942;2023-08-21T12:08:20;4.80;;;4.35;;
37445;SDS011;23307;51.136;14.942;2023-08-21T12:10:49;5.15;;;4.20;;
37445;SDS011;23307;51.136;14.942;2023-08-21T12:13:15;4.90;;;4.50;;
37445;SDS011;23307;51.136;14.942;2023-08-21T12:15:41;4.80;;;4.40;;
37445;SDS011;23307;51.136;14.942;2023-08-21T12:18:07;4.68;;;4.28;;
37445;SDS011;23307;51.136;14.942;2023-08-21T12:20:32;4.78;;;4.38;;
37445;SDS011;23307;51.136;14.942;2023-08-21T12:22:58;4.78;;;4.38;;
37445;SDS011;23307;51.136;14.942;2023-08-21T12:25:24;4.93;;;4.30;;
37445;SDS011;23307;51.136;14.942;2023-08-21T12:27:50;4.75;;;4.30;;
37445;SDS011;23307;51.136;14.942;2023-08-21T12:30:16;4.70;;;4.30;;
37445;SDS011;23307;51.136;14.942;2023-08-21T12:32:41;4.75;;;4.35;;
37445;SDS011;23307;51.136;14.942;2023-08-21T12:35:07;5.05;;;4.65;;
37445;SDS011;23307;51.136;14.942;2023-08-21T12:37:36;5.35;;;4.40;;
37445;SDS011;23307;51.136;14.942;2023-08-21T12:40:02;4.53;;;4.13;;
37445;SDS011;23307;51.136;14.942;2023-08-21T12:42:28;4.82;;;4.43;;
37445;SDS011;23307;51.136;14.942;2023-08-21T12:44:54;5.03;;;4.40;;
37445;SDS011;23307;51.136;14.942;2023-08-21T12:47:19;4.97;;;4.57;;
37445;SDS011;23307;51.136;14.942;2023-08-21T12:49:45;5.05;;;4.55;;
37445;SDS011;23307;51.136;14.942;2023-08-21T12:52:10;5.00;;;4.47;;
37445;SDS011;23307;51.136;14.942;2023-08-21T12:54:37;5.32;;;4.55;;
37445;SDS011;23307;51.136;14.942;2023-08-21T12:57:03;4.60;;;4.20;;
37445;SDS011;23307;51.136;14.942;2023-08-21T12:59:30;5.03;;;4.20;;
37445;SDS011;23307;51.136;14.942;2023-08-21T13:01:56;4.50;;;4.20;;
37445;SDS011;23307;51.136;14.942;2023-08-21T13:04:23;4.38;;;4.07;;
37445;SDS011;23307;51.136;14.942;2023-08-21T13:06:49;4.00;;;3.70;;
37445;SDS011;23307;51.136;14.942;2023-08-21T13:09:14;4.45;;;4.05;;
37445;SDS011;23307;51.136;14.942;2023-08-21T13:11:40;4.43;;;4.03;;
37445;SDS011;23307;51.136;14.942;2023-08-21T13:14:06;4.30;;;3.90;;
37445;SDS011;23307;51.136;14.942;2023-08-21T13:16:31;4.25;;;3.88;;
37445;SDS011;23307;51.136;14.942;2023-08-21T13:18:57;4.28;;;3.88;;
37445;SDS011;23307;51.136;14.942;2023-08-21T13:21:22;5.65;;;3.97;;
37445;SDS011;23307;51.136;14.942;2023-08-21T13:23:48;4.72;;;4.20;;
37445;SDS011;23307;51.136;14.942;2023-08-21T13:26:13;5.57;;;3.88;;
37445;SDS011;23307;51.136;14.942;2023-08-21T13:28:40;4.15;;;3.85;;
37445;SDS011;23307;51.136;14.942;2023-08-21T13:31:05;5.10;;;4.30;;
37445;SDS011;23307;51.136;14.942;2023-08-21T13:33:32;4.10;;;3.80;;
37445;SDS011;23307;51.136;14.942;2023-08-21T13:36:11;5.30;;;3.85;;
37445;SDS011;23307;51.136;14.942;2023-08-21T13:38:36;4.55;;;4.07;;
37445;SDS011;23307;51.136;14.942;2023-08-21T13:41:02;4.35;;;3.83;;
37445;SDS011;23307;51.136;14.942;2023-08-21T13:43:27;5.35;;;4.25;;
37445;SDS011;23307;51.136;14.942;2023-08-21T13:45:53;5.00;;;4.60;;
37445;SDS011;23307;51.136;14.942;2023-08-21T13:48:19;4.80;;;4.40;;
37445;SDS011;23307;51.136;14.942;2023-08-21T13:50:44;6.55;;;4.50;;
37445;SDS011;23307;51.136;14.942;2023-08-21T13:53:10;4.28;;;3.97;;
37445;SDS011;23307;51.136;14.942;2023-08-21T13:55:36;4.50;;;4.10;;
37445;SDS011;23307;51.136;14.942;2023-08-21T13:58:01;4.70;;;4.30;;
37445;SDS011;23307;51.136;14.942;2023-08-21T14:00:27;4.60;;;4.20;;
37445;SDS011;23307;51.136;14.942;2023-08-21T14:02:53;5.63;;;4.43;;
37445;SDS011;23307;51.136;14.942;2023-08-21T14:05:18;4.72;;;4.20;;
37445;SDS011;23307;51.136;14.942;2023-08-21T14:07:44;5.20;;;4.70;;
37445;SDS011;23307;51.136;14.942;2023-08-21T14:10:10;4.70;;;4.30;;
37445;SDS011;23307;51.136;14.942;2023-08-21T14:12:36;4.47;;;4.15;;
37445;SDS011;23307;51.136;14.942;2023-08-21T14:15:02;4.82;;;4.40;;
37445;SDS011;23307;51.136;14.942;2023-08-21T14:17:28;4.88;;;4.25;;
37445;SDS011;23307;51.136;14.942;2023-08-21T14:19:54;4.65;;;4.22;;
37445;SDS011;23307;51.136;14.942;2023-08-21T14:22:20;4.82;;;4.43;;